createdAt,value
2022-10-09T00:01:21.804Z,4.50
2022-10-09T00:03:50.827Z,6.73
2022-10-09T00:06:23.241Z,6.47
2022-10-09T00:08:50.839Z,16.63
2022-10-09T00:11:24.026Z,8.37
2022-10-09T00:13:53.185Z,9.40
2022-10-09T00:16:21.471Z,13.50
2022-10-09T00:18:49.156Z,11.17
2022-10-09T00:21:33.376Z,5.70
2022-10-09T00:24:03.148Z,7.53
2022-10-09T00:26:31.502Z,11.00
2022-10-09T00:28:59.229Z,4.53
2022-10-09T00:31:26.783Z,10.03
2022-10-09T00:33:54.190Z,7.77
2022-10-09T00:36:24.044Z,7.00
2022-10-09T00:38:53.424Z,7.90
2022-10-09T00:41:27.900Z,11.03
2022-10-09T00:43:56.604Z,11.80
2022-10-09T00:46:42.434Z,13.30
2022-10-09T00:49:20.944Z,14.20
2022-10-09T00:51:51.906Z,8.53
2022-10-09T00:54:22.997Z,7.43
2022-10-09T00:56:51.026Z,19.77
2022-10-09T00:59:19.075Z,12.83
2022-10-09T01:01:46.967Z,10.50
2022-10-09T01:04:15.041Z,14.50
2022-10-09T01:07:05.210Z,13.63
2022-10-09T01:09:48.735Z,8.80
2022-10-09T01:12:34.260Z,10.30
2022-10-09T01:15:31.150Z,11.07
2022-10-09T01:18:14.538Z,18.63
2022-10-09T01:20:48.167Z,10.47
2022-10-09T01:23:40.213Z,10.63
2022-10-09T01:26:16.990Z,14.27
2022-10-09T01:28:49.184Z,19.23
2022-10-09T01:31:17.920Z,12.20
2022-10-09T01:33:46.544Z,10.97
2022-10-09T01:36:16.222Z,22.80
2022-10-09T01:38:45.042Z,12.63
2022-10-09T01:41:12.287Z,12.83
2022-10-09T01:43:41.221Z,12.23
2022-10-09T01:46:24.767Z,9.70
2022-10-09T01:49:13.952Z,11.73
2022-10-09T01:52:05.673Z,14.17
2022-10-09T01:54:48.177Z,10.00
2022-10-09T01:57:22.919Z,14.20
2022-10-09T01:59:52.506Z,12.93
2022-10-09T02:02:21.629Z,12.83
2022-10-09T02:04:49.889Z,16.53
2022-10-09T02:07:18.144Z,14.23
2022-10-09T02:09:46.734Z,13.93
2022-10-09T02:12:15.519Z,13.27
2022-10-09T02:14:42.640Z,15.30
2022-10-09T02:17:18.259Z,10.93
2022-10-09T02:19:52.343Z,10.27
2022-10-09T02:22:23.821Z,10.40
2022-10-09T02:24:51.841Z,13.70
2022-10-09T02:27:21.095Z,10.33
2022-10-09T02:29:49.547Z,14.90
2022-10-09T02:32:17.216Z,9.40
2022-10-09T02:34:44.610Z,16.23
2022-10-09T02:37:12.387Z,17.37
2022-10-09T02:39:39.773Z,10.93
2022-10-09T02:42:06.907Z,9.00
2022-10-09T02:44:34.528Z,11.67
2022-10-09T02:47:01.868Z,7.27
2022-10-09T02:49:29.146Z,11.60
2022-10-09T02:51:56.494Z,8.23
2022-10-09T02:54:23.774Z,10.63
2022-10-09T02:56:50.926Z,13.63
2022-10-09T02:59:18.654Z,13.10
2022-10-09T03:01:46.044Z,13.03
2022-10-09T03:04:13.379Z,12.23
2022-10-09T03:06:40.792Z,18.20
2022-10-09T03:09:08.025Z,11.43
2022-10-09T03:11:35.206Z,12.60
2022-10-09T03:14:02.611Z,12.30
2022-10-09T03:16:30.016Z,13.57
2022-10-09T03:18:58.685Z,17.30
2022-10-09T03:21:27.851Z,16.03
2022-10-09T03:23:55.593Z,15.13
2022-10-09T03:26:25.363Z,15.57
2022-10-09T03:28:54.173Z,18.97
2022-10-09T03:31:51.815Z,16.93
2022-10-09T03:34:12.976Z,17.53
2022-10-09T03:36:40.427Z,17.10
2022-10-09T03:39:07.950Z,17.40
2022-10-09T03:41:35.304Z,16.53
2022-10-09T03:44:02.432Z,18.37
2022-10-09T03:46:29.800Z,14.87
2022-10-09T03:48:57.350Z,21.70
2022-10-09T03:51:24.539Z,15.17
2022-10-09T03:53:51.815Z,21.57
2022-10-09T03:56:19.349Z,16.37
2022-10-09T03:58:46.493Z,12.77
2022-10-09T04:01:13.825Z,18.13
2022-10-09T04:03:41.230Z,15.27
2022-10-09T04:06:08.413Z,21.50
2022-10-09T04:08:36.119Z,15.47
2022-10-09T04:11:03.829Z,19.53
2022-10-09T04:13:31.121Z,17.20
2022-10-09T04:15:58.565Z,23.73
2022-10-09T04:18:26.428Z,17.90
2022-10-09T04:20:56.517Z,25.47
2022-10-09T04:23:26.433Z,17.07
2022-10-09T04:25:55.520Z,20.70
2022-10-09T04:28:23.763Z,17.87
2022-10-09T04:30:51.197Z,17.83
2022-10-09T04:33:18.866Z,17.67
2022-10-09T04:35:49.673Z,18.83
2022-10-09T04:38:17.063Z,21.57
2022-10-09T04:40:44.525Z,18.70
2022-10-09T04:43:11.724Z,22.20
2022-10-09T04:45:41.788Z,22.87
2022-10-09T04:48:09.205Z,20.70
2022-10-09T04:50:39.426Z,19.00
2022-10-09T04:53:06.642Z,15.47
2022-10-09T04:55:42.120Z,17.17
2022-10-09T04:58:11.148Z,17.33
2022-10-09T05:00:43.951Z,17.13
2022-10-09T05:03:12.618Z,20.63
2022-10-09T05:05:40.029Z,15.53
2022-10-09T05:08:07.403Z,19.03
2022-10-09T05:10:34.906Z,19.70
2022-10-09T05:13:02.525Z,15.63
2022-10-09T05:15:29.806Z,20.97
2022-10-09T05:17:57.075Z,22.50
2022-10-09T05:20:24.509Z,19.70
2022-10-09T05:22:52.410Z,17.97
2022-10-09T05:25:19.840Z,18.73
2022-10-09T05:27:47.252Z,14.87
2022-10-09T05:30:14.576Z,18.80
2022-10-09T05:32:41.785Z,16.60
2022-10-09T05:35:09.342Z,22.10
2022-10-09T05:37:36.778Z,17.80
2022-10-09T05:40:04.410Z,18.43
2022-10-09T05:42:32.120Z,20.90
2022-10-09T05:44:59.412Z,16.30
2022-10-09T05:47:26.885Z,28.00
2022-10-09T05:49:55.797Z,20.50
2022-10-09T05:52:25.524Z,16.57
2022-10-09T05:54:55.467Z,22.00
2022-10-09T05:57:23.650Z,14.77
2022-10-09T05:59:51.143Z,18.83
2022-10-09T06:02:21.447Z,14.00
2022-10-09T06:04:50.588Z,19.97
2022-10-09T06:07:20.105Z,18.47
2022-10-09T06:09:49.554Z,22.47
2022-10-09T06:12:17.857Z,18.53
2022-10-09T06:14:45.194Z,15.80
2022-10-09T06:17:14.279Z,16.97
2022-10-09T06:19:41.973Z,15.43
2022-10-09T06:22:09.246Z,32.60
2022-10-09T06:24:36.942Z,30.20
2022-10-09T06:27:04.263Z,21.13
2022-10-09T06:29:31.649Z,24.57
2022-10-09T06:31:59.059Z,18.80
2022-10-09T06:34:27.445Z,18.40
2022-10-09T06:36:54.653Z,18.87
2022-10-09T06:39:23.180Z,18.83
2022-10-09T06:41:50.479Z,19.93
2022-10-09T06:44:31.489Z,16.97
2022-10-09T06:46:58.754Z,18.37
2022-10-09T06:49:26.124Z,23.87
2022-10-09T06:51:53.642Z,24.10
2022-10-09T06:54:20.924Z,16.67
2022-10-09T06:56:48.190Z,15.33
2022-10-09T06:59:16.383Z,23.63
2022-10-09T07:01:44.437Z,11.90
2022-10-09T07:04:14.673Z,8.70
2022-10-09T07:06:45.024Z,12.73
2022-10-09T07:09:14.454Z,13.30
2022-10-09T07:11:49.614Z,11.50
2022-10-09T07:14:17.726Z,16.07
2022-10-09T07:16:47.033Z,13.60
2022-10-09T07:19:15.894Z,11.93
2022-10-09T07:21:46.062Z,11.37
2022-10-09T07:24:14.531Z,10.17
2022-10-09T07:26:45.508Z,13.57
2022-10-09T07:29:15.471Z,10.30
2022-10-09T07:31:44.056Z,12.00
2022-10-09T07:34:12.042Z,10.37
2022-10-09T07:36:39.840Z,8.23
2022-10-09T07:39:07.279Z,17.23
2022-10-09T07:41:34.870Z,10.17
2022-10-09T07:44:02.763Z,14.07
2022-10-09T07:46:33.739Z,14.43
2022-10-09T07:49:02.415Z,9.73
2022-10-09T07:51:31.344Z,7.47
2022-10-09T07:54:02.422Z,14.53
2022-10-09T07:56:36.369Z,9.07
2022-10-09T07:59:11.906Z,13.83
2022-10-09T08:01:40.170Z,11.33
2022-10-09T08:04:07.977Z,21.90
2022-10-09T08:06:35.548Z,15.17
2022-10-09T08:09:08.790Z,15.20
2022-10-09T08:11:40.730Z,15.60
2022-10-09T08:14:15.279Z,14.00
2022-10-09T08:16:45.812Z,8.40
2022-10-09T08:19:13.149Z,13.97
2022-10-09T08:21:40.673Z,12.73
2022-10-09T08:24:10.120Z,13.50
2022-10-09T08:26:38.719Z,15.10
2022-10-09T08:29:08.622Z,21.67
2022-10-09T08:31:36.958Z,14.97
2022-10-09T08:34:04.989Z,21.53
2022-10-09T08:36:35.443Z,14.37
2022-10-09T08:39:04.576Z,13.97
2022-10-09T08:41:46.111Z,21.43
2022-10-09T08:44:26.837Z,23.17
2022-10-09T08:47:09.799Z,12.80
2022-10-09T08:49:46.353Z,17.20
2022-10-09T08:52:19.323Z,17.33
2022-10-09T08:54:46.912Z,17.10
2022-10-09T08:57:16.540Z,13.77
2022-10-09T08:59:45.044Z,17.80
2022-10-09T09:02:30.768Z,13.23
2022-10-09T09:05:19.988Z,13.77
2022-10-09T09:07:47.980Z,16.50
2022-10-09T09:10:41.074Z,36.03
2022-10-09T09:13:29.922Z,32.77
2022-10-09T09:16:15.615Z,25.00
2022-10-09T09:19:09.838Z,23.67
2022-10-09T09:21:51.373Z,8.68
2022-10-09T09:24:38.263Z,12.02
2022-10-09T09:27:14.159Z,10.02
2022-10-09T09:29:54.644Z,10.85
2022-10-09T09:32:26.548Z,16.52
2022-10-09T09:35:03.643Z,11.05
2022-10-09T09:37:31.515Z,17.63
2022-10-09T09:42:47.647Z,9.10
2022-10-09T09:45:22.440Z,10.68
2022-10-09T09:47:55.044Z,5.70
2022-10-09T09:53:34.343Z,12.32
2022-10-09T09:56:02.452Z,7.85
2022-10-09T09:58:55.378Z,7.50
2022-10-09T10:01:31.052Z,7.25
2022-10-09T10:04:01.222Z,8.38
2022-10-09T10:06:31.896Z,9.60
2022-10-09T10:09:14.060Z,6.38
2022-10-09T10:12:04.358Z,13.20
2022-10-09T10:14:33.317Z,10.80
2022-10-09T10:17:02.435Z,13.65
2022-10-09T10:19:32.388Z,6.18
2022-10-09T10:22:02.645Z,13.23
2022-10-09T10:24:43.455Z,11.88
2022-10-09T10:27:30.075Z,12.80
2022-10-09T10:30:01.406Z,8.20
2022-10-09T10:32:40.348Z,8.73
2022-10-09T10:35:10.709Z,10.75
2022-10-09T10:38:06.627Z,6.80
2022-10-09T10:40:57.830Z,7.27
2022-10-09T10:43:52.053Z,6.17
2022-10-09T10:46:31.322Z,8.10
2022-10-09T10:49:00.756Z,13.23
2022-10-09T10:51:38.274Z,12.00
2022-10-09T10:54:33.003Z,7.57
2022-10-09T10:57:23.202Z,7.30
2022-10-09T11:00:07.210Z,8.75
2022-10-09T11:03:13.535Z,15.18
2022-10-09T11:06:03.846Z,10.25
2022-10-09T11:08:46.258Z,15.55
2022-10-09T11:11:46.712Z,10.55
2022-10-09T11:14:22.969Z,12.38
2022-10-09T11:16:58.531Z,9.52
2022-10-09T11:19:26.137Z,9.27
2022-10-09T11:22:03.051Z,8.55
2022-10-09T11:24:45.958Z,7.20
2022-10-09T11:27:21.217Z,10.98
2022-10-09T11:29:59.245Z,9.90
2022-10-09T11:32:45.482Z,12.57
2022-10-09T11:35:20.287Z,9.95
2022-10-09T11:38:24.470Z,6.05
2022-10-09T11:40:53.147Z,9.45
2022-10-09T11:43:23.701Z,8.52
2022-10-09T11:46:12.524Z,14.55
2022-10-09T11:48:59.122Z,10.18
2022-10-09T11:51:49.216Z,6.47
2022-10-09T11:54:22.230Z,10.50
2022-10-09T11:57:02.703Z,7.25
2022-10-09T11:59:42.415Z,8.20
2022-10-09T12:02:25.434Z,9.32
2022-10-09T12:04:55.411Z,7.05
2022-10-09T12:10:31.784Z,8.25
2022-10-09T12:13:04.348Z,7.10
2022-10-09T12:15:55.224Z,6.97
2022-10-09T12:18:25.056Z,3.38
2022-10-09T12:20:54.604Z,3.60
2022-10-09T12:23:27.908Z,5.40
2022-10-09T12:25:56.945Z,6.85
2022-10-09T12:28:30.292Z,4.18
2022-10-09T12:31:00.920Z,7.15
2022-10-09T12:33:39.717Z,5.32
2022-10-09T12:36:14.956Z,5.03
2022-10-09T12:38:43.125Z,4.15
2022-10-09T12:41:23.407Z,10.80
2022-10-09T12:43:54.390Z,5.20
2022-10-09T12:46:34.810Z,7.32
2022-10-09T12:49:05.799Z,4.75
2022-10-09T12:51:34.313Z,4.07
2022-10-09T12:54:09.193Z,9.20
2022-10-09T12:56:39.104Z,7.07
2022-10-09T12:59:09.852Z,4.80
2022-10-09T13:01:38.059Z,6.20
2022-10-09T13:04:08.689Z,5.63
2022-10-09T13:06:47.693Z,6.97
2022-10-09T13:09:22.411Z,8.02
2022-10-09T13:12:06.211Z,4.38
2022-10-09T13:14:41.416Z,5.28
2022-10-09T13:17:42.006Z,5.72
2022-10-09T13:20:12.465Z,6.97
2022-10-09T13:22:40.077Z,7.05
2022-10-09T13:25:09.416Z,2.67
2022-10-09T13:27:39.628Z,6.38
2022-10-09T13:30:07.952Z,6.95
2022-10-09T13:32:35.436Z,4.78
2022-10-09T13:35:03.424Z,5.80
2022-10-09T13:37:30.897Z,2.53
2022-10-09T13:39:59.660Z,6.30
2022-10-09T13:42:31.235Z,5.63
2022-10-09T13:44:58.775Z,8.23
2022-10-09T13:47:26.972Z,5.97
2022-10-09T13:49:55.371Z,6.65
2022-10-09T13:52:22.832Z,4.75
2022-10-09T13:54:50.554Z,4.93
2022-10-09T13:57:18.280Z,7.80
2022-10-09T13:59:45.727Z,3.90
2022-10-09T14:02:13.202Z,4.78
2022-10-09T14:04:41.067Z,3.97
2022-10-09T14:07:08.549Z,3.67
2022-10-09T14:09:35.971Z,6.03
2022-10-09T14:12:03.995Z,6.20
2022-10-09T14:14:31.652Z,3.00
2022-10-09T14:16:58.994Z,4.50
2022-10-09T14:19:28.093Z,7.80
2022-10-09T14:21:57.171Z,8.48
2022-10-09T14:24:25.385Z,8.02
2022-10-09T14:26:53.092Z,5.13
2022-10-09T14:29:20.592Z,7.05
2022-10-09T14:31:51.487Z,6.72
2022-10-09T14:34:19.570Z,7.05
2022-10-09T14:36:47.027Z,8.30
2022-10-09T14:39:15.400Z,13.70
2022-10-09T14:41:42.713Z,7.60
2022-10-09T14:44:10.325Z,6.25
2022-10-09T14:46:39.442Z,8.88
2022-10-09T14:49:08.267Z,8.65
2022-10-09T14:51:37.574Z,10.45
2022-10-09T14:54:06.803Z,9.32
2022-10-09T14:56:34.805Z,6.82
2022-10-09T14:59:02.498Z,8.27
2022-10-09T15:01:30.218Z,5.97
2022-10-09T15:03:59.767Z,9.20
2022-10-09T15:06:28.204Z,10.35
2022-10-09T15:09:03.177Z,4.85
2022-10-09T15:11:33.723Z,6.10
2022-10-09T15:14:01.354Z,7.22
2022-10-09T15:16:28.725Z,10.02
2022-10-09T15:18:56.239Z,8.95
2022-10-09T15:21:27.597Z,8.60
2022-10-09T15:23:56.736Z,11.32
2022-10-09T15:26:25.630Z,6.33
2022-10-09T15:28:53.794Z,6.73
2022-10-09T15:31:37.684Z,8.60
2022-10-09T15:34:07.615Z,5.17
2022-10-09T15:36:37.984Z,12.80
2022-10-09T15:39:07.872Z,5.87
2022-10-09T15:41:38.191Z,6.27
2022-10-09T15:44:12.909Z,12.53
2022-10-09T15:46:40.640Z,9.67
2022-10-09T15:49:08.744Z,6.87
2022-10-09T15:51:36.177Z,4.33
2022-10-09T15:54:04.518Z,8.87
2022-10-09T15:56:34.878Z,24.73
2022-10-09T15:59:06.356Z,19.43
2022-10-09T16:01:33.707Z,14.57
2022-10-09T16:04:01.051Z,13.67
2022-10-09T16:06:28.516Z,18.33
2022-10-09T16:08:58.134Z,11.53
2022-10-09T16:11:26.615Z,13.20
2022-10-09T16:13:56.510Z,10.60
2022-10-09T16:16:26.128Z,12.47
2022-10-09T16:18:54.867Z,7.83
2022-10-09T16:21:25.755Z,8.50
2022-10-09T16:23:58.361Z,7.67
2022-10-09T16:26:29.456Z,12.57
2022-10-09T16:28:57.145Z,9.00
2022-10-09T16:31:31.494Z,10.67
2022-10-09T16:33:59.329Z,10.30
2022-10-09T16:36:27.506Z,9.23
2022-10-09T16:38:56.260Z,4.33
2022-10-09T16:41:24.278Z,7.87
2022-10-09T16:43:54.394Z,23.27
2022-10-09T16:46:36.674Z,15.70
2022-10-09T16:49:05.148Z,11.10
2022-10-09T16:51:36.300Z,14.40
2022-10-09T16:54:06.187Z,13.47
2022-10-09T16:56:36.964Z,10.73
2022-10-09T16:59:07.932Z,12.97
2022-10-09T17:01:38.064Z,31.03
2022-10-09T17:04:05.882Z,9.40
2022-10-09T17:06:33.771Z,11.00
2022-10-09T17:09:01.467Z,15.43
2022-10-09T17:11:31.001Z,6.73
2022-10-09T17:13:58.658Z,15.40
2022-10-09T17:16:30.170Z,10.10
2022-10-09T17:18:59.834Z,11.37
2022-10-09T17:21:32.864Z,17.63
2022-10-09T17:24:06.749Z,12.60
2022-10-09T17:26:35.843Z,6.80
2022-10-09T17:29:04.983Z,9.43
2022-10-09T17:31:34.022Z,10.57
2022-10-09T17:34:04.432Z,13.30
2022-10-09T17:36:37.054Z,8.27
2022-10-09T17:39:06.228Z,15.73
2022-10-09T17:41:34.681Z,20.93
2022-10-09T17:44:04.347Z,11.83
2022-10-09T17:46:32.945Z,15.73
2022-10-09T17:49:01.230Z,15.60
2022-10-09T17:51:37.694Z,10.77
2022-10-09T17:54:12.831Z,15.23
2022-10-09T17:56:42.113Z,15.93
2022-10-09T17:59:10.360Z,12.37
2022-10-09T18:01:39.183Z,17.33
2022-10-09T18:04:07.134Z,19.70
2022-10-09T18:06:37.008Z,15.73
2022-10-09T18:09:06.540Z,24.83
2022-10-09T18:11:34.406Z,32.33
2022-10-09T18:14:02.333Z,42.73
2022-10-09T18:16:36.372Z,35.90
2022-10-09T18:19:11.551Z,28.77
2022-10-09T18:21:45.877Z,35.90
2022-10-09T18:24:14.274Z,24.90
2022-10-09T18:26:42.066Z,17.83
2022-10-09T18:29:09.737Z,20.53
2022-10-09T18:31:38.649Z,17.53
2022-10-09T18:34:06.817Z,19.27
2022-10-09T18:36:35.110Z,12.90
2022-10-09T18:39:07.556Z,23.87
2022-10-09T18:41:37.600Z,18.90
2022-10-09T18:44:08.038Z,20.63
2022-10-09T18:46:43.214Z,18.20
2022-10-09T18:49:12.487Z,14.70
2022-10-09T18:51:42.872Z,16.03
2022-10-09T18:54:17.168Z,17.87
2022-10-09T18:56:48.228Z,13.97
2022-10-09T18:59:20.140Z,24.97
2022-10-09T19:01:48.454Z,53.30
2022-10-09T19:04:16.334Z,69.87
2022-10-09T19:06:44.485Z,15.17
2022-10-09T19:09:12.833Z,15.60
2022-10-09T19:11:40.972Z,16.67
2022-10-09T19:14:08.744Z,14.10
2022-10-09T19:16:36.540Z,15.13
2022-10-09T19:19:04.483Z,14.50
2022-10-09T19:21:32.476Z,15.77
2022-10-09T19:24:06.559Z,20.07
2022-10-09T19:26:35.570Z,15.10
2022-10-09T19:29:05.067Z,17.13
2022-10-09T19:31:34.326Z,142.43
2022-10-09T19:34:05.983Z,87.13
2022-10-09T19:36:37.002Z,58.83
2022-10-09T19:39:05.621Z,58.73
2022-10-09T19:41:33.773Z,90.00
2022-10-09T19:44:01.911Z,140.67
2022-10-09T19:46:29.715Z,147.53
2022-10-09T19:48:57.660Z,92.47
2022-10-09T19:51:26.786Z,69.50
2022-10-09T19:53:55.035Z,41.90
2022-10-09T19:56:26.311Z,47.77
2022-10-09T19:58:55.063Z,73.20
2022-10-09T20:01:28.048Z,45.67
2022-10-09T20:04:03.789Z,42.53
2022-10-09T20:06:33.441Z,33.10
2022-10-09T20:09:03.774Z,38.13
2022-10-09T20:11:35.615Z,35.27
2022-10-09T20:14:06.457Z,34.13
2022-10-09T20:16:35.691Z,40.43
2022-10-09T20:19:03.957Z,47.23
2022-10-09T20:21:34.586Z,28.63
2022-10-09T20:24:05.263Z,26.00
2022-10-09T20:26:34.201Z,23.97
2022-10-09T20:29:01.986Z,24.77
2022-10-09T20:31:30.552Z,26.50
2022-10-09T20:33:59.024Z,24.13
2022-10-09T20:36:31.370Z,24.27
2022-10-09T20:39:02.244Z,22.00
2022-10-09T20:41:31.004Z,21.70
2022-10-09T20:44:00.256Z,25.47
2022-10-09T20:46:30.341Z,30.70
2022-10-09T20:48:58.603Z,28.40
2022-10-09T20:51:26.836Z,28.33
2022-10-09T20:53:56.792Z,29.03
2022-10-09T20:56:26.409Z,30.60
2022-10-09T20:58:55.151Z,36.50
2022-10-09T21:01:23.541Z,37.40
2022-10-09T21:03:51.843Z,28.00
2022-10-09T21:06:21.735Z,31.43
2022-10-09T21:08:50.473Z,38.23
2022-10-09T21:11:19.371Z,37.83
2022-10-09T21:13:48.124Z,50.33
2022-10-09T21:16:19.001Z,40.00
2022-10-09T21:18:46.853Z,39.07
2022-10-09T21:21:16.902Z,61.67
2022-10-09T21:23:45.176Z,86.97
2022-10-09T21:26:15.215Z,84.20
2022-10-09T21:28:43.515Z,85.37
2022-10-09T21:31:13.380Z,76.77
2022-10-09T21:33:40.999Z,88.67
2022-10-09T21:36:51.033Z,81.33
2022-10-09T21:39:28.513Z,70.53
2022-10-09T21:41:56.240Z,74.27
2022-10-09T21:44:23.886Z,78.57
2022-10-09T21:46:51.807Z,62.97
2022-10-09T21:49:24.957Z,62.03
2022-10-09T21:51:52.298Z,79.13
2022-10-09T21:54:20.691Z,87.47
2022-10-09T21:56:48.859Z,79.07
2022-10-09T21:59:16.437Z,71.37
2022-10-09T22:01:43.979Z,70.97
2022-10-09T22:04:11.433Z,76.33
2022-10-09T22:06:38.709Z,83.00
2022-10-09T22:09:06.335Z,62.27
2022-10-09T22:11:33.657Z,58.93
2022-10-09T22:14:00.996Z,58.17
2022-10-09T22:16:28.575Z,64.23
2022-10-09T22:18:56.101Z,64.17
2022-10-09T22:21:23.843Z,62.20
2022-10-09T22:23:51.361Z,52.60
2022-10-09T22:26:20.967Z,45.80
2022-10-09T22:28:49.609Z,60.70
2022-10-09T22:31:25.969Z,49.73
2022-10-09T22:33:57.985Z,47.27
2022-10-09T22:36:28.462Z,41.60
2022-10-09T22:38:58.123Z,43.03
2022-10-09T22:41:27.440Z,48.10
2022-10-09T22:43:57.157Z,36.97
2022-10-09T22:46:34.069Z,39.03
2022-10-09T22:49:01.796Z,36.67
2022-10-09T22:51:30.384Z,34.67
2022-10-09T22:53:59.354Z,35.20
2022-10-09T22:56:30.135Z,39.43
2022-10-09T22:58:58.987Z,32.83
2022-10-09T23:01:37.200Z,37.83
2022-10-09T23:04:10.422Z,33.90
2022-10-09T23:06:38.320Z,37.00
2022-10-09T23:09:08.874Z,32.23
2022-10-09T23:11:36.603Z,52.60
2022-10-09T23:14:05.605Z,41.73
2022-10-09T23:16:33.973Z,46.40
2022-10-09T23:19:06.358Z,45.90
2022-10-09T23:21:37.160Z,31.53
2022-10-09T23:24:05.458Z,36.97
2022-10-09T23:26:33.897Z,43.07
2022-10-09T23:29:07.320Z,46.27
2022-10-09T23:31:36.093Z,48.47
2022-10-09T23:34:05.791Z,54.83
2022-10-09T23:36:33.798Z,49.73
2022-10-09T23:39:03.793Z,39.77
2022-10-09T23:41:31.485Z,46.90
2022-10-09T23:43:58.834Z,48.33
2022-10-09T23:46:29.868Z,46.50
2022-10-09T23:48:57.284Z,46.47
2022-10-09T23:51:25.831Z,48.97
2022-10-09T23:53:53.303Z,45.77
2022-10-09T23:56:33.270Z,41.17
2022-10-09T23:59:02.546Z,43.70
